Time;durP1;ratioP1;P1;durP2;ratioP2;P2;SDS_P1;SDS_P2;PMS_P1;PMS_P2;Temp;Humidity;BMP_temperature;BMP_pressure;BME280_temperature;BME280_humidity;BME280_pressure;Samples;Min_cycle;Max_cycle;Signal;HPM_P1;HPM_P2
2023/04/02 00:02:29;;;;;;;0.80;0.60;;;;;;;8.81;98.64;97354.91;5053320;28;20212;-80
2023/04/02 00:05:50;;;;;;;1.00;0.60;;;;;;;8.78;98.85;97355.13;5053266;28;20226;-80
2023/04/02 00:08:37;;;;;;;0.70;0.60;;;;;;;8.81;98.73;97345.19;5053386;28;20213;-81
2023/04/02 00:11:04;;;;;;;0.80;0.50;;;;;;;8.76;97.94;97352.59;5052826;28;20324;-80
2023/04/02 00:13:36;;;;;;;0.80;0.60;;;;;;;8.75;98.25;97353.53;5052687;28;20211;-79
2023/04/02 00:16:06;;;;;;;0.60;0.47;;;;;;;8.73;98.24;97352.84;5052930;28;20610;-81
2023/04/02 00:18:35;;;;;;;0.50;0.50;;;;;;;8.74;98.23;97358.91;5053190;28;20214;-79
2023/04/02 00:21:10;;;;;;;1.33;0.50;;;;;;;8.74;98.53;97361.56;5052393;28;20213;-79
2023/04/02 00:23:39;;;;;;;1.03;0.50;;;;;;;8.72;98.80;97369.59;5051509;28;20212;-81
2023/04/02 00:26:21;;;;;;;1.03;0.60;;;;;;;8.73;98.25;97373.91;5052404;28;20230;-80
2023/04/02 00:28:48;;;;;;;1.50;0.60;;;;;;;8.74;98.60;97372.09;5052778;28;20213;-81
2023/04/02 00:31:18;;;;;;;1.20;0.60;;;;;;;8.69;98.97;97371.63;5052388;28;20227;-80
2023/04/02 00:33:46;;;;;;;0.53;0.50;;;;;;;8.70;98.83;97374.13;5052769;28;20209;-80
2023/04/02 00:36:12;;;;;;;1.63;0.50;;;;;;;8.65;99.01;97380.69;5052426;28;20233;-81
2023/04/02 00:38:42;;;;;;;0.87;0.70;;;;;;;8.67;99.56;97386.69;5052199;28;20209;-80
2023/04/02 00:41:16;;;;;;;1.47;0.73;;;;;;;8.67;99.43;97384.03;5052394;28;20212;-79
2023/04/02 00:43:46;;;;;;;1.00;0.73;;;;;;;8.74;98.82;97382.63;5052607;28;20623;-81
2023/04/02 00:46:17;;;;;;;1.63;0.83;;;;;;;8.73;98.42;97386.22;5052114;28;20272;-80
2023/04/02 00:48:49;;;;;;;1.10;0.60;;;;;;;8.72;98.51;97387.19;5052222;28;20217;-80
2023/04/02 00:51:19;;;;;;;1.13;0.77;;;;;;;8.71;98.89;97390.78;5052533;28;20230;-80
2023/04/02 00:53:49;;;;;;;0.80;0.57;;;;;;;8.71;99.03;97390.78;5055719;28;20214;-80
2023/04/02 00:56:21;;;;;;;0.60;0.60;;;;;;;8.70;99.45;97389.09;5075752;28;20231;-80
2023/04/02 00:58:53;;;;;;;1.30;0.60;;;;;;;8.69;99.92;97382.97;5076683;28;20293;-79
2023/04/02 01:01:23;;;;;;;0.63;0.60;;;;;;;8.68;100.00;97390.97;5068180;28;20206;-79
2023/04/02 01:03:56;;;;;;;0.60;0.50;;;;;;;8.70;100.00;97397.00;5051719;28;20213;-79
2023/04/02 01:06:28;;;;;;;1.13;0.83;;;;;;;8.67;100.00;97391.94;5051992;28;20267;-80
2023/04/02 01:09:10;;;;;;;1.90;0.70;;;;;;;8.67;100.00;97394.56;5051766;28;20214;-79
2023/04/02 01:11:54;;;;;;;0.70;0.70;;;;;;;8.66;100.00;97400.81;5051664;28;20234;-80
2023/04/02 01:14:37;;;;;;;0.50;0.50;;;;;;;8.65;100.00;97407.88;5051795;28;20216;-81
2023/04/02 01:17:14;;;;;;;0.70;0.63;;;;;;;8.64;100.00;97405.34;5051713;28;20212;-80
2023/04/02 01:20:12;;;;;;;0.73;0.50;;;;;;;8.66;100.00;97413.97;5051399;28;20209;-80
2023/04/02 01:22:48;;;;;;;1.40;0.60;;;;;;;8.65;100.00;97409.66;5051427;28;20276;-77
2023/04/02 01:25:21;;;;;;;0.47;0.47;;;;;;;8.62;100.00;97418.63;5051480;28;20240;-81
2023/04/02 01:27:56;;;;;;;0.73;0.50;;;;;;;8.66;100.00;97413.97;5052247;28;20215;-82
2023/04/02 01:30:25;;;;;;;1.13;0.70;;;;;;;8.63;100.00;97403.69;5051429;28;20590;-82
2023/04/02 01:32:53;;;;;;;0.50;0.50;;;;;;;8.67;100.00;97413.00;5051443;28;20278;-82
2023/04/02 01:35:21;;;;;;;0.87;0.63;;;;;;;8.66;100.00;97413.97;5051286;28;20244;-81
2023/04/02 01:37:55;;;;;;;0.43;0.43;;;;;;;8.66;100.00;97409.56;5051451;28;20212;-82
2023/04/02 01:40:34;;;;;;;0.83;0.40;;;;;;;8.67;100.00;97421.78;5051692;28;20240;-81
2023/04/02 01:43:11;;;;;;;0.40;0.40;;;;;;;8.72;100.00;97418.78;5051523;28;20204;-81
2023/04/02 01:45:39;;;;;;;1.13;0.40;;;;;;;8.72;100.00;97413.53;5051155;28;20243;-79
2023/04/02 01:48:12;;;;;;;0.87;0.50;;;;;;;8.74;100.00;97416.88;5051502;28;20209;-81
2023/04/02 01:50:40;;;;;;;0.43;0.40;;;;;;;8.76;100.00;97418.44;5051230;28;20589;-82
2023/04/02 01:53:10;;;;;;;0.60;0.53;;;;;;;8.76;100.00;97423.72;5051221;28;20234;-81
2023/04/02 01:55:41;;;;;;;1.67;0.63;;;;;;;8.74;99.45;97422.16;5051008;28;20234;-81
2023/04/02 01:58:10;;;;;;;1.60;0.60;;;;;;;8.72;99.02;97418.78;5051426;28;20216;-82
2023/04/02 02:00:45;;;;;;;0.80;0.50;;;;;;;8.72;98.64;97418.78;5051118;28;20588;-81
2023/04/02 02:03:12;;;;;;;0.40;0.40;;;;;;;8.72;98.47;97413.53;5051064;28;20578;-82
2023/04/02 02:05:39;;;;;;;0.50;0.50;;;;;;;8.73;98.09;97423.09;5051099;28;20226;-81
2023/04/02 02:08:19;;;;;;;0.50;0.50;;;;;;;8.71;98.37;97425.03;5050889;28;20211;-81
2023/04/02 02:10:45;;;;;;;0.40;0.33;;;;;;;8.73;98.46;97431.84;5050962;28;20209;-81
2023/04/02 02:13:14;;;;;;;0.50;0.50;;;;;;;8.72;97.93;97426.69;5050933;28;20230;-82
2023/04/02 02:15:43;;;;;;;0.47;0.40;;;;;;;8.73;98.30;97433.63;5050923;28;20225;-81
2023/04/02 02:18:12;;;;;;;0.50;0.50;;;;;;;8.73;98.07;97425.75;5050891;28;20204;-82
2023/04/02 02:20:39;;;;;;;1.00;0.90;;;;;;;8.75;98.11;97429.13;5051081;28;20207;-81
2023/04/02 02:23:07;;;;;;;0.40;0.40;;;;;;;8.75;98.11;97432.59;5051095;28;20213;-81
2023/04/02 02:25:36;;;;;;;1.90;0.40;;;;;;;8.76;97.04;97436.06;5050934;28;20645;-81
2023/04/02 02:28:06;;;;;;;0.97;0.60;;;;;;;8.80;97.23;97432.25;5050977;28;20218;-80
2023/04/02 02:30:36;;;;;;;0.40;0.40;;;;;;;8.74;96.75;97432.69;5050586;28;20213;-81
2023/04/02 02:33:08;;;;;;;0.40;0.40;;;;;;;8.73;97.15;97436.28;5050697;28;20581;-81
2023/04/02 02:35:41;;;;;;;0.77;0.50;;;;;;;8.74;98.02;97448.50;5051143;28;20233;-78
2023/04/02 02:38:28;;;;;;;0.93;0.47;;;;;;;8.72;97.07;97446.00;5051164;28;20210;-81
2023/04/02 02:41:01;;;;;;;0.43;0.43;;;;;;;8.79;96.87;97441.09;5050466;28;20566;-82
2023/04/02 02:43:28;;;;;;;0.40;0.40;;;;;;;8.77;96.99;97443.88;5050787;28;20581;-82
2023/04/02 02:45:56;;;;;;;0.40;0.40;;;;;;;8.79;97.29;97446.38;5050586;28;20236;-81
2023/04/02 02:48:35;;;;;;;0.57;0.40;;;;;;;8.78;97.67;97455.22;5054142;28;20254;-82
2023/04/02 02:51:07;;;;;;;0.40;0.40;;;;;;;8.73;97.71;97458.22;5054304;28;20218;-81
2023/04/02 02:53:45;;;;;;;0.60;0.50;;;;;;;8.78;97.96;97458.72;5054455;28;20236;-81
2023/04/02 02:56:12;;;;;;;0.37;0.37;;;;;;;8.79;97.88;97456.91;5054316;28;20266;-81
2023/04/02 02:58:39;;;;;;;0.60;0.50;;;;;;;8.78;98.19;97460.50;5054188;28;20671;-81
2023/04/02 03:01:06;;;;;;;0.47;0.33;;;;;;;8.75;98.58;97460.75;5053902;28;20213;-81
2023/04/02 03:03:34;;;;;;;0.40;0.40;;;;;;;8.73;98.75;97462.63;5054155;28;20292;-80
2023/04/02 03:06:04;;;;;;;1.07;0.50;;;;;;;8.79;99.15;97467.44;5054207;28;20232;-82
2023/04/02 03:08:35;;;;;;;0.60;0.40;;;;;;;8.74;99.41;97472.19;5054070;28;20257;-81
2023/04/02 03:11:07;;;;;;;0.77;0.40;;;;;;;8.79;98.97;97467.44;5053968;28;20245;-81
2023/04/02 03:13:35;;;;;;;0.37;0.37;;;;;;;8.82;98.93;97475.97;5054218;28;20489;-81
2023/04/02 03:16:09;;;;;;;0.93;0.40;;;;;;;8.78;99.06;97471.03;5054003;28;20234;-81
2023/04/02 03:18:43;;;;;;;0.50;0.50;;;;;;;8.78;99.19;97471.03;5053953;28;20212;-81
2023/04/02 03:21:25;;;;;;;0.50;0.50;;;;;;;8.74;99.81;97477.47;5053415;28;20260;-80
2023/04/02 03:23:56;;;;;;;0.40;0.40;;;;;;;8.75;100.00;97481.81;5053881;28;20214;-81
2023/04/02 03:26:30;;;;;;;0.40;0.40;;;;;;;8.73;100.00;97483.69;5053771;28;20256;-81
2023/04/02 03:29:01;;;;;;;0.63;0.60;;;;;;;8.71;100.00;97485.59;5053824;28;20298;-80
2023/04/02 03:31:32;;;;;;;0.73;0.43;;;;;;;8.70;100.00;97495.28;5053543;28;20263;-81
2023/04/02 03:34:08;;;;;;;0.50;0.40;;;;;;;8.71;100.00;97498.78;5053478;28;20231;-81
2023/04/02 03:36:42;;;;;;;0.40;0.30;;;;;;;8.71;100.00;97499.63;5053666;28;20521;-81
2023/04/02 03:39:14;;;;;;;0.73;0.50;;;;;;;8.74;100.00;97502.03;5053588;28;20214;-81
2023/04/02 03:41:44;;;;;;;1.60;0.40;;;;;;;8.72;100.00;97503.09;5053540;28;20213;-81
2023/04/02 03:44:21;;;;;;;0.70;0.50;;;;;;;8.70;100.00;97499.75;5053322;28;20276;-80
2023/04/02 03:46:56;;;;;;;0.40;0.40;;;;;;;8.67;100.00;97507.84;5053518;28;20574;-81
2023/04/02 03:49:30;;;;;;;0.40;0.40;;;;;;;8.67;100.00;97508.69;5053174;28;20279;-81
2023/04/02 03:52:02;;;;;;;2.30;0.60;;;;;;;8.68;100.00;97512.16;5053532;28;20269;-80
2023/04/02 03:54:29;;;;;;;0.40;0.40;;;;;;;8.70;100.00;97513.72;5053113;28;20226;-81
2023/04/02 03:56:56;;;;;;;0.37;0.37;;;;;;;8.70;100.00;97518.19;5054137;28;20212;-82
2023/04/02 03:59:31;;;;;;;0.30;0.30;;;;;;;8.70;100.00;97520.81;5053490;28;20257;-82
2023/04/02 04:02:01;;;;;;;0.53;0.53;;;;;;;8.70;100.00;97510.28;5053194;28;20262;-81
2023/04/02 04:04:31;;;;;;;0.50;0.37;;;;;;;8.70;100.00;97523.44;5052979;28;20214;-81
2023/04/02 04:07:00;;;;;;;0.40;0.40;;;;;;;8.69;100.00;97519.13;5052989;28;20217;-81
2023/04/02 04:09:31;;;;;;;0.53;0.53;;;;;;;8.70;100.00;97532.16;5052876;28;20225;-81
2023/04/02 04:12:08;;;;;;;0.40;0.40;;;;;;;8.72;100.00;97524.16;5054104;28;20293;-82
2023/04/02 04:14:40;;;;;;;0.40;0.40;;;;;;;8.74;100.00;97524.88;5055013;28;20237;-81
2023/04/02 04:17:14;;;;;;;1.13;0.60;;;;;;;8.76;100.00;97538.81;5067905;28;20254;-80
2023/04/02 04:19:46;;;;;;;0.83;0.50;;;;;;;8.72;100.00;97537.34;5077029;28;20197;-81
2023/04/02 04:22:17;;;;;;;0.40;0.40;;;;;;;8.81;100.00;97539.34;5077282;28;20183;-81
2023/04/02 04:24:46;;;;;;;0.40;0.40;;;;;;;8.78;100.00;97539.53;5052524;28;20226;-81
2023/04/02 04:27:21;;;;;;;0.40;0.40;;;;;;;8.74;100.00;97543.31;5052585;28;20380;-82
2023/04/02 04:29:53;;;;;;;0.80;0.40;;;;;;;8.76;100.00;97546.72;5052028;28;20209;-80
2023/04/02 04:32:30;;;;;;;1.67;0.50;;;;;;;8.71;100.00;97554.09;5052669;28;20214;-81
2023/04/02 04:35:03;;;;;;;0.93;0.50;;;;;;;8.74;100.00;97556.50;5052573;28;20275;-82
2023/04/02 04:37:34;;;;;;;0.73;0.50;;;;;;;8.75;100.00;97553.75;5052593;28;20215;-80
2023/04/02 04:40:06;;;;;;;0.47;0.40;;;;;;;8.71;100.00;97564.63;5052215;28;20238;-81
2023/04/02 04:42:35;;;;;;;0.70;0.57;;;;;;;8.69;100.00;97569.19;5052467;28;20209;-81
2023/04/02 04:45:12;;;;;;;0.40;0.40;;;;;;;8.67;100.00;97569.28;5052263;28;20240;-81
2023/04/02 04:47:44;;;;;;;1.10;0.60;;;;;;;8.66;100.00;97577.28;5052392;28;20638;-81
2023/04/02 04:50:19;;;;;;;0.50;0.50;;;;;;;8.68;100.00;97585.91;5051998;28;20222;-81
2023/04/02 04:52:45;;;;;;;0.50;0.50;;;;;;;8.71;100.00;97583.06;5052025;28;20238;-82
2023/04/02 04:55:29;;;;;;;0.93;0.40;;;;;;;8.71;100.00;97583.06;5052277;28;20233;-82
2023/04/02 04:58:00;;;;;;;0.97;0.40;;;;;;;8.68;100.00;97584.13;5052060;28;20213;-81
2023/04/02 05:00:34;;;;;;;0.60;0.50;;;;;;;8.72;100.00;97587.38;5051926;28;20212;-82
2023/04/02 05:03:12;;;;;;;0.47;0.40;;;;;;;8.73;100.00;97589.94;5051900;28;20251;-81
2023/04/02 05:05:40;;;;;;;0.47;0.40;;;;;;;8.73;100.00;97589.94;5052082;28;20234;-82
2023/04/02 05:08:14;;;;;;;0.33;0.33;;;;;;;8.73;100.00;97595.19;5051789;28;20209;-82
2023/04/02 05:10:45;;;;;;;0.83;0.60;;;;;;;8.75;100.00;97603.00;5051121;28;20601;-81
2023/04/02 05:13:18;;;;;;;0.93;0.40;;;;;;;8.73;100.00;97599.59;5051739;28;20255;-80
2023/04/02 05:15:52;;;;;;;0.60;0.60;;;;;;;8.73;100.00;97602.25;5051586;28;20228;-82
2023/04/02 05:18:25;;;;;;;1.13;0.60;;;;;;;8.74;100.00;97601.28;5051951;28;20205;-80
2023/04/02 05:20:58;;;;;;;0.50;0.50;;;;;;;8.73;100.00;97607.50;5051450;28;20214;-81
2023/04/02 05:23:27;;;;;;;0.40;0.40;;;;;;;8.69;100.00;97608.69;5051380;28;20273;-82
2023/04/02 05:26:01;;;;;;;1.80;0.60;;;;;;;8.68;100.00;97620.16;5051452;28;20235;-81
2023/04/02 05:28:34;;;;;;;0.50;0.40;;;;;;;8.69;100.00;97622.69;5051801;28;20208;-80
2023/04/02 05:31:05;;;;;;;0.40;0.40;;;;;;;8.66;100.00;97627.34;5051373;28;20218;-81
2023/04/02 05:33:33;;;;;;;0.53;0.50;;;;;;;8.67;100.00;97623.75;5051589;28;20236;-80
2023/04/02 05:36:05;;;;;;;0.57;0.50;;;;;;;8.68;100.00;97634.19;5051280;28;20718;-80
2023/04/02 05:38:34;;;;;;;1.40;0.50;;;;;;;8.69;100.00;97625.31;5051350;28;20206;-81
2023/04/02 05:41:04;;;;;;;0.63;0.57;;;;;;;8.66;100.00;97630.81;5051430;28;20210;-81
2023/04/02 05:43:34;;;;;;;0.60;0.60;;;;;;;8.68;100.00;97633.31;5051564;28;20312;-81
2023/04/02 05:46:10;;;;;;;0.73;0.50;;;;;;;8.67;100.00;97635.13;5076827;22;20288;-78
2023/04/02 05:48:42;;;;;;;0.40;0.40;;;;;;;8.69;100.00;97633.22;5072282;28;20213;-78
2023/04/02 05:51:17;;;;;;;1.27;0.50;;;;;;;8.72;100.00;97640.94;5071085;28;20211;-78
2023/04/02 05:53:49;;;;;;;0.53;0.53;;;;;;;8.74;100.00;97644.28;5071662;28;20225;-78
2023/04/02 05:56:20;;;;;;;1.70;0.70;;;;;;;8.75;100.00;97645.16;5071540;28;20405;-78
2023/04/02 05:58:51;;;;;;;0.63;0.50;;;;;;;8.82;100.00;97651.69;5071183;28;20221;-78
2023/04/02 06:01:23;;;;;;;0.67;0.40;;;;;;;8.83;100.00;97645.44;5071034;28;20706;-78
2023/04/02 06:03:57;;;;;;;0.40;0.40;;;;;;;8.86;100.00;97658.41;5071194;28;20267;-78
2023/04/02 06:06:41;;;;;;;0.70;0.53;;;;;;;8.88;100.00;97665.25;5070973;28;20225;-78
2023/04/02 06:09:13;;;;;;;0.60;0.60;;;;;;;8.92;100.00;97657.97;5070939;28;20217;-78
2023/04/02 06:11:44;;;;;;;0.73;0.70;;;;;;;8.89;100.00;97664.31;5071401;28;20220;-78
2023/04/02 06:14:12;;;;;;;0.70;0.50;;;;;;;8.90;100.00;97670.41;5071025;28;20231;-78
2023/04/02 06:16:39;;;;;;;0.70;0.60;;;;;;;8.91;100.00;97678.22;5070984;28;20241;-78
2023/04/02 06:19:10;;;;;;;0.83;0.50;;;;;;;8.93;100.00;97680.75;5071000;28;20306;-78
2023/04/02 06:21:44;;;;;;;0.70;0.63;;;;;;;8.94;100.00;97682.44;5073558;28;20654;-78
2023/04/02 06:24:15;;;;;;;0.67;0.67;;;;;;;8.96;100.00;97688.44;5075129;28;20626;-78
2023/04/02 06:26:48;;;;;;;1.17;0.63;;;;;;;8.96;100.00;97697.19;5074753;28;20321;-77
2023/04/02 06:29:20;;;;;;;1.47;0.70;;;;;;;8.94;100.00;97695.63;5074599;28;20199;-78
2023/04/02 06:31:51;;;;;;;0.97;0.70;;;;;;;8.98;100.00;97694.44;5074931;28;20304;-78
2023/04/02 06:34:20;;;;;;;0.60;0.60;;;;;;;9.04;100.00;97701.91;5074793;28;20266;-78
2023/04/02 06:36:49;;;;;;;0.90;0.60;;;;;;;9.08;100.00;97700.75;5074534;28;20227;-78
2023/04/02 06:39:21;;;;;;;0.73;0.73;;;;;;;9.08;100.00;97713.94;5074140;28;20205;-78
2023/04/02 06:41:56;;;;;;;0.70;0.70;;;;;;;9.14;100.00;97710.88;5074389;28;20209;-78
2023/04/02 06:44:26;;;;;;;1.00;0.70;;;;;;;9.19;100.00;97714.88;5074710;28;20240;-78
2023/04/02 06:46:57;;;;;;;0.70;0.70;;;;;;;9.19;100.00;97719.31;5074709;28;20589;-78
2023/04/02 06:49:32;;;;;;;0.77;0.77;;;;;;;9.23;100.00;97723.44;5074551;28;20589;-78
2023/04/02 06:52:02;;;;;;;0.80;0.70;;;;;;;9.30;100.00;97727.31;5075006;28;20302;-78
2023/04/02 06:54:29;;;;;;;1.90;0.60;;;;;;;9.32;100.00;97730.69;5074944;28;20231;-78
2023/04/02 06:56:56;;;;;;;0.67;0.67;;;;;;;9.37;100.00;97736.47;5074450;28;20234;-78
2023/04/02 06:59:25;;;;;;;0.40;0.40;;;;;;;9.40;100.00;97734.47;5074098;28;20228;-78
2023/04/02 07:01:54;;;;;;;0.90;0.50;;;;;;;9.47;100.00;97743.63;5074472;28;20791;-78
2023/04/02 07:04:21;;;;;;;1.57;0.60;;;;;;;9.46;100.00;97743.72;5074421;28;20213;-78
2023/04/02 07:06:48;;;;;;;1.00;0.60;;;;;;;9.45;100.00;97744.69;5074324;28;20237;-78
2023/04/02 07:09:16;;;;;;;1.33;0.80;;;;;;;9.50;100.00;97751.34;5074083;28;20205;-78
2023/04/02 07:11:43;;;;;;;0.60;0.60;;;;;;;9.55;100.00;97753.66;5074691;28;20534;-78
2023/04/02 07:14:11;;;;;;;2.13;0.80;;;;;;;9.62;100.00;97761.00;5074607;28;20230;-79
2023/04/02 07:16:39;;;;;;;0.60;0.60;;;;;;;9.67;100.00;97763.31;5074030;28;20633;-76
2023/04/02 07:19:06;;;;;;;0.80;0.40;;;;;;;9.70;100.00;97763.94;5072996;28;20708;-79
2023/04/02 07:21:33;;;;;;;1.00;0.50;;;;;;;9.74;100.00;97764.56;5071211;28;20210;-79
2023/04/02 07:23:59;;;;;;;0.90;0.60;;;;;;;9.73;100.00;97768.16;5072915;28;20242;-76
2023/04/02 07:26:27;;;;;;;0.40;0.40;;;;;;;9.79;100.00;97778.28;5073918;28;20247;-77
2023/04/02 07:28:55;;;;;;;0.50;0.50;;;;;;;9.79;100.00;97773.84;5072314;28;20217;-78
2023/04/02 07:31:24;;;;;;;0.73;0.60;;;;;;;9.81;100.00;97781.66;5070776;28;20237;-78
2023/04/02 07:33:51;;;;;;;0.80;0.80;;;;;;;9.85;100.00;97788.41;5072717;28;20323;-78
2023/04/02 07:36:21;;;;;;;1.33;0.70;;;;;;;9.90;100.00;97788.94;5073947;28;20606;-79
2023/04/02 07:38:48;;;;;;;0.50;0.50;;;;;;;9.87;100.00;97786.50;5071962;28;20208;-79
2023/04/02 07:41:15;;;;;;;1.20;0.63;;;;;;;9.89;100.00;97787.22;5070688;28;20213;-79
2023/04/02 07:43:43;;;;;;;0.87;0.57;;;;;;;9.95;100.00;97789.41;5073266;28;20598;-79
2023/04/02 07:46:12;;;;;;;0.63;0.60;;;;;;;9.97;100.00;97792.81;5073606;28;20244;-79
2023/04/02 07:48:39;;;;;;;0.60;0.60;;;;;;;10.02;100.00;97796.78;5071357;28;20208;-78
2023/04/02 07:51:14;;;;;;;0.60;0.60;;;;;;;10.04;100.00;97799.34;5070848;28;20245;-78
2023/04/02 07:53:41;;;;;;;0.60;0.60;;;;;;;10.02;99.21;97801.22;5073799;28;20232;-78
2023/04/02 07:56:07;;;;;;;0.60;0.50;;;;;;;10.01;98.89;97804.81;5073923;28;20238;-78
2023/04/02 07:58:34;;;;;;;0.73;0.70;;;;;;;10.04;98.54;97816.03;5073745;28;20226;-78
2023/04/02 08:01:02;;;;;;;0.77;0.70;;;;;;;10.03;98.41;97814.34;5073284;28;20212;-78
2023/04/02 08:03:29;;;;;;;1.87;0.80;;;;;;;10.07;98.18;97821.09;5067753;28;20218;-79
2023/04/02 08:05:58;;;;;;;0.80;0.67;;;;;;;10.11;97.45;97812.00;5069683;28;20229;-78
2023/04/02 08:08:25;;;;;;;1.00;0.60;;;;;;;10.13;96.42;97822.44;5069795;28;20223;-78
2023/04/02 08:10:52;;;;;;;0.63;0.63;;;;;;;10.07;96.38;97822.88;5072780;28;20215;-78
2023/04/02 08:13:18;;;;;;;0.53;0.53;;;;;;;10.08;96.25;97819.28;5069855;28;20324;-78
2023/04/02 08:15:45;;;;;;;0.60;0.60;;;;;;;10.11;96.53;97834.94;5070085;28;20238;-78
2023/04/02 08:18:13;;;;;;;0.60;0.60;;;;;;;10.13;96.73;97825.09;5072642;28;20215;-79
2023/04/02 08:20:40;;;;;;;0.90;0.90;;;;;;;10.24;97.12;97833.06;5071878;28;20696;-79
2023/04/02 08:23:14;;;;;;;1.47;0.90;;;;;;;10.27;98.54;97838.97;5069477;28;20244;-79
2023/04/02 08:25:40;;;;;;;1.63;0.80;;;;;;;10.32;99.92;97857.13;5070748;28;20227;-79
2023/04/02 08:28:07;;;;;;;1.37;0.80;;;;;;;10.31;100.00;97856.31;5073182;28;20214;-78
2023/04/02 08:30:33;;;;;;;2.27;0.97;;;;;;;10.26;100.00;97860.22;5072237;28;20215;-77
2023/04/02 08:33:00;;;;;;;0.80;0.80;;;;;;;10.22;100.00;97856.94;5072103;28;20674;-77
2023/04/02 08:35:28;;;;;;;1.10;1.00;;;;;;;10.21;100.00;97867.66;5071772;28;20234;-77
2023/04/02 08:37:54;;;;;;;2.17;1.23;;;;;;;10.22;100.00;97866.69;5071923;28;20221;-77
2023/04/02 08:40:26;;;;;;;1.03;0.97;;;;;;;10.16;100.00;97875.06;5072073;28;20269;-77
2023/04/02 08:43:09;;;;;;;1.30;0.90;;;;;;;10.13;100.00;97872.63;5072267;28;20579;-77
2023/04/02 08:45:46;;;;;;;1.53;1.00;;;;;;;10.16;100.00;97877.69;5069261;28;20726;-77
2023/04/02 08:48:15;;;;;;;1.00;0.90;;;;;;;10.24;100.00;97885.91;5069501;28;20234;-77
2023/04/02 08:50:44;;;;;;;0.83;0.83;;;;;;;10.36;100.00;97879.75;5070216;28;20218;-76
2023/04/02 08:53:15;;;;;;;2.10;1.30;;;;;;;10.46;100.00;97886.06;5072086;28;20213;-76
2023/04/02 08:55:51;;;;;;;2.50;1.10;;;;;;;10.48;100.00;97879.72;5070208;28;20252;-77
2023/04/02 08:58:29;;;;;;;1.27;1.10;;;;;;;10.62;100.00;97881.31;5069213;28;20545;-77
2023/04/02 09:00:57;;;;;;;1.83;1.10;;;;;;;10.68;99.35;97894.09;5070425;28;20671;-77
2023/04/02 09:03:29;;;;;;;1.20;1.10;;;;;;;10.73;99.88;97894.59;5071410;28;20208;-76
2023/04/02 09:05:59;;;;;;;1.90;1.00;;;;;;;10.68;99.56;97894.09;5068973;28;20228;-77
2023/04/02 09:08:27;;;;;;;1.30;1.10;;;;;;;10.63;99.55;97907.66;5067715;28;20301;-77
2023/04/02 09:11:01;;;;;;;1.20;1.07;;;;;;;10.66;100.00;97910.09;5070441;28;20219;-75
2023/04/02 09:13:30;;;;;;;1.13;1.03;;;;;;;10.73;100.00;97916.59;5071159;28;20215;-77
2023/04/02 09:16:02;;;;;;;0.93;0.93;;;;;;;10.71;100.00;97917.66;5068405;28;20716;-77
2023/04/02 09:18:31;;;;;;;2.77;1.43;;;;;;;10.69;100.00;97928.34;5068455;28;20208;-76
2023/04/02 09:21:03;;;;;;;1.10;1.00;;;;;;;10.73;100.00;97923.66;5071404;28;20220;-77
2023/04/02 09:23:30;;;;;;;0.90;0.90;;;;;;;10.77;100.00;97925.97;5071063;28;20210;-77
2023/04/02 09:25:57;;;;;;;0.87;0.80;;;;;;;10.95;99.72;97923.78;5068600;28;20577;-77
2023/04/02 09:28:24;;;;;;;1.03;1.03;;;;;;;11.15;98.41;97920.50;5069128;28;20221;-76
2023/04/02 09:31:01;;;;;;;0.80;0.77;;;;;;;11.32;96.48;97915.63;5071230;28;20221;-76
2023/04/02 09:33:42;;;;;;;1.03;1.00;;;;;;;11.56;94.96;97920.88;5070735;28;20239;-76
2023/04/02 09:36:18;;;;;;;0.90;0.80;;;;;;;11.79;94.15;97918.16;5068097;28;20264;-76
2023/04/02 09:38:58;;;;;;;1.00;0.90;;;;;;;12.03;92.00;97918.91;5069489;28;20217;-77
2023/04/02 09:41:28;;;;;;;1.17;0.80;;;;;;;12.13;90.04;97924.34;5070982;28;20697;-87
2023/04/02 09:44:14;;;;;;;0.80;0.70;;;;;;;12.29;85.95;97922.16;5070471;28;20666;-86
2023/04/02 09:46:48;;;;;;;1.00;0.80;;;;;;;12.16;82.78;97918.81;5068444;28;20236;-87
2023/04/02 09:49:17;;;;;;;1.10;0.93;;;;;;;12.11;82.72;97921.78;5070701;28;20319;-90
2023/04/02 09:51:45;;;;;;;2.93;1.00;;;;;;;12.12;84.91;97934.09;5071612;28;20209;-88
2023/04/02 09:54:15;;;;;;;3.43;0.80;;;;;;;12.12;81.46;97926.16;5068965;28;20235;-88
2023/04/02 09:57:00;;;;;;;1.10;1.00;;;;;;;11.98;84.23;97938.78;5067902;28;20259;-87
2023/04/02 09:59:27;;;;;;;0.70;0.70;;;;;;;12.14;84.59;97931.31;5071222;28;20639;-90
2023/04/02 10:02:00;;;;;;;0.57;0.57;;;;;;;12.25;83.29;97936.63;5071346;28;20215;-93
2023/04/02 10:04:42;;;;;;;0.50;0.43;;;;;;;12.43;82.92;97932.50;5068775;28;20240;-93
2023/04/02 10:07:33;;;;;;;0.60;0.60;;;;;;;12.57;79.19;97935.75;5070502;28;20218;-89
2023/04/02 10:10:00;;;;;;;0.40;0.40;;;;;;;12.64;79.03;97930.78;5070956;28;20210;-88
2023/04/02 10:12:30;;;;;;;0.97;0.53;;;;;;;12.62;77.19;97936.22;5070087;28;20574;-87
2023/04/02 10:14:58;;;;;;;0.40;0.40;;;;;;;12.49;75.48;97935.53;5067920;28;20235;-85
2023/04/02 10:17:30;;;;;;;0.47;0.40;;;;;;;12.41;77.42;97939.75;5069387;28;20703;-93
2023/04/02 10:20:01;;;;;;;0.40;0.40;;;;;;;12.47;77.82;97939.25;5070397;28;20221;-84
2023/04/02 10:22:33;;;;;;;0.87;0.50;;;;;;;12.66;77.24;97940.28;5070819;28;20210;-85
2023/04/02 10:24:59;;;;;;;0.50;0.50;;;;;;;12.63;75.49;97937.03;5070587;28;20305;-80
2023/04/02 10:27:32;;;;;;;0.73;0.60;;;;;;;12.66;74.89;97939.47;5070579;28;20264;-79
2023/04/02 10:30:11;;;;;;;0.90;0.50;;;;;;;12.64;73.47;97936.94;5070063;28;20222;-78
2023/04/02 10:32:43;;;;;;;0.40;0.40;;;;;;;12.61;75.38;97946.94;5070505;28;20210;-79
2023/04/02 10:35:18;;;;;;;0.80;0.50;;;;;;;12.73;76.74;97951.25;5070543;28;20229;-84
2023/04/02 10:38:01;;;;;;;0.40;0.40;;;;;;;12.84;76.53;97948.59;5070291;28;20301;-83
2023/04/02 10:40:30;;;;;;;0.40;0.40;;;;;;;12.94;74.29;97945.06;5070040;28;20217;-83
2023/04/02 10:43:46;;;;;;;1.00;0.67;;;;;;;12.67;74.17;97946.44;5070311;28;20673;-83
2023/04/02 10:46:20;;;;;;;0.67;0.67;;;;;;;12.54;74.71;97962.47;5035300;28;20250;-84
2023/04/02 10:48:54;;;;;;;1.00;1.00;;;;;;;12.56;75.67;97965.03;5070561;28;20233;-84
2023/04/02 10:51:31;;;;;;;1.10;0.70;;;;;;;12.49;75.40;97969.97;5069982;28;20204;-83
2023/04/02 10:54:07;;;;;;;0.43;0.43;;;;;;;12.45;74.21;97962.38;5070399;28;20214;-83
2023/04/02 10:56:34;;;;;;;1.30;1.10;;;;;;;12.36;74.32;97963.13;5070322;28;20234;-83
2023/04/02 10:59:07;;;;;;;2.00;1.80;;;;;;;12.18;76.49;97980.47;5070060;28;20214;-82
2023/04/02 11:01:35;;;;;;;1.30;0.90;;;;;;;12.18;76.40;97980.47;5070110;28;20220;-83
2023/04/02 11:04:06;;;;;;;1.00;0.77;;;;;;;12.20;76.94;97981.16;5070359;28;20206;-85
2023/04/02 11:06:39;;;;;;;0.90;0.80;;;;;;;12.20;75.51;97986.47;5070488;28;20234;-83
2023/04/02 11:09:16;;;;;;;1.90;0.90;;;;;;;12.14;75.53;97986.94;5072968;28;20218;-84
2023/04/02 11:11:46;;;;;;;1.00;0.90;;;;;;;12.21;77.47;98002.25;5073833;28;20250;-83
2023/04/02 11:14:17;;;;;;;0.60;0.60;;;;;;;12.24;77.06;98001.19;5073520;28;20707;-81
2023/04/02 11:16:44;;;;;;;0.70;0.67;;;;;;;12.33;77.62;98005.75;5073045;28;20238;-81
2023/04/02 11:19:28;;;;;;;0.73;0.60;;;;;;;12.42;77.26;97999.75;5070841;28;20287;-81
2023/04/02 11:21:58;;;;;;;0.67;0.67;;;;;;;12.50;77.25;98007.91;5069897;28;20261;-82
2023/04/02 11:24:36;;;;;;;0.60;0.60;;;;;;;12.61;75.11;97994.66;5072713;28;20218;-81
2023/04/02 11:27:14;;;;;;;0.60;0.60;;;;;;;12.55;75.50;98003.09;5073006;28;20214;-82
2023/04/02 11:29:42;;;;;;;0.50;0.47;;;;;;;12.62;75.72;98002.50;5072527;28;20578;-81
2023/04/02 11:32:26;;;;;;;0.50;0.50;;;;;;;12.59;74.23;98001.91;5073693;28;20685;-79
2023/04/02 11:35:25;;;;;;;0.97;0.50;;;;;;;12.65;73.20;98001.41;5073608;28;20238;-80
2023/04/02 11:37:53;;;;;;;0.50;0.50;;;;;;;12.84;73.52;98002.47;5074015;28;20207;-81
2023/04/02 11:40:44;;;;;;;0.40;0.40;;;;;;;12.90;71.47;98001.97;5073537;28;20670;-81
2023/04/02 11:43:44;;;;;;;0.40;0.40;;;;;;;12.79;70.31;97988.75;5073597;28;20207;-79
2023/04/02 11:46:38;;;;;;;0.40;0.40;;;;;;;13.02;71.17;98003.66;5062213;22;20231;-82
2023/04/02 11:49:38;;;;;;;0.40;0.40;;;;;;;13.28;72.54;98009.53;5093515;28;20210;-81
2023/04/02 11:52:20;;;;;;;1.83;1.20;;;;;;;13.60;70.79;98010.34;5093871;28;20351;-82
2023/04/02 11:54:56;;;;;;;0.50;0.50;;;;;;;13.79;68.01;97992.75;5093460;28;20828;-81
2023/04/02 11:57:45;;;;;;;0.40;0.40;;;;;;;13.77;67.78;97994.72;5093283;28;20238;-81
2023/04/02 12:00:23;;;;;;;0.60;0.40;;;;;;;13.66;66.77;97996.56;5093483;28;20560;-81